createdAt,value
2023-06-10T00:00:14.149Z,3.63
2023-06-10T00:02:43.806Z,3.40
2023-06-10T00:05:12.272Z,4.95
2023-06-10T00:07:42.465Z,4.88
2023-06-10T00:10:12.757Z,4.40
2023-06-10T00:12:41.344Z,4.15
2023-06-10T00:15:11.256Z,4.10
2023-06-10T00:17:40.911Z,4.43
2023-06-10T00:20:13.195Z,4.55
2023-06-10T00:22:42.849Z,3.90
2023-06-10T00:25:13.082Z,3.85
2023-06-10T00:27:41.322Z,3.70
2023-06-10T00:30:10.609Z,3.95
2023-06-10T00:32:39.601Z,3.60
2023-06-10T00:35:09.236Z,4.05
2023-06-10T00:37:37.859Z,4.43
2023-06-10T00:40:07.243Z,4.28
2023-06-10T00:42:36.919Z,4.57
2023-06-10T00:45:05.894Z,4.53
2023-06-10T00:47:34.413Z,4.40
2023-06-10T00:50:03.494Z,4.22
2023-06-10T00:52:32.261Z,4.38
2023-06-10T00:55:01.226Z,3.78
2023-06-10T00:57:30.474Z,4.38
2023-06-10T01:00:00.303Z,3.95
2023-06-10T01:02:29.810Z,4.55
2023-06-10T01:05:02.628Z,3.80
2023-06-10T01:07:39.264Z,5.00
2023-06-10T01:10:13.522Z,3.90
2023-06-10T01:12:49.704Z,3.78
2023-06-10T01:15:20.204Z,4.35
2023-06-10T01:17:59.037Z,4.45
2023-06-10T01:20:28.354Z,4.25
2023-06-10T01:23:01.169Z,4.25
2023-06-10T01:25:30.483Z,4.53
2023-06-10T01:28:05.330Z,4.22
2023-06-10T01:30:41.041Z,4.32
2023-06-10T01:33:11.667Z,4.30
2023-06-10T01:35:41.197Z,5.00
2023-06-10T01:38:14.544Z,5.25
2023-06-10T01:40:43.529Z,4.75
2023-06-10T01:43:11.958Z,4.38
2023-06-10T01:45:41.397Z,5.93
2023-06-10T01:48:10.096Z,4.93
2023-06-10T01:50:38.512Z,4.47
2023-06-10T01:53:07.418Z,4.43
2023-06-10T01:55:37.035Z,4.57
2023-06-10T01:58:05.295Z,3.97
2023-06-10T02:00:33.594Z,4.72
2023-06-10T02:03:03.772Z,4.25
2023-06-10T02:05:32.138Z,4.00
2023-06-10T02:08:00.433Z,4.85
2023-06-10T02:10:28.740Z,4.53
2023-06-10T02:13:00.641Z,4.03
2023-06-10T02:15:28.945Z,4.03
2023-06-10T02:17:57.737Z,4.10
2023-06-10T02:20:26.052Z,4.22
2023-06-10T02:22:54.526Z,4.07
2023-06-10T02:25:22.808Z,3.80
2023-06-10T02:27:52.384Z,4.45
2023-06-10T02:30:22.107Z,4.32
2023-06-10T02:32:51.770Z,4.57
2023-06-10T02:35:23.662Z,4.32
2023-06-10T02:37:52.534Z,4.65
2023-06-10T02:40:22.102Z,4.85
2023-06-10T02:42:50.964Z,4.43
2023-06-10T02:45:21.463Z,5.38
2023-06-10T02:47:49.874Z,6.10
2023-06-10T02:50:18.479Z,6.18
2023-06-10T02:52:59.719Z,6.38
2023-06-10T02:55:28.886Z,6.25
2023-06-10T02:58:02.014Z,5.22
2023-06-10T03:00:32.597Z,6.30
2023-06-10T03:03:03.924Z,6.53
2023-06-10T03:05:36.687Z,5.70
2023-06-10T03:08:07.495Z,6.30
2023-06-10T03:10:38.915Z,5.25
2023-06-10T03:13:07.365Z,4.60
2023-06-10T03:15:37.474Z,5.45
2023-06-10T03:18:09.116Z,5.28
2023-06-10T03:20:38.685Z,5.18
2023-06-10T03:23:08.789Z,4.88
2023-06-10T03:25:37.437Z,4.90
2023-06-10T03:28:06.756Z,5.30
2023-06-10T03:30:39.804Z,7.85
2023-06-10T03:33:08.708Z,6.30
2023-06-10T03:35:37.303Z,7.65
2023-06-10T03:38:07.703Z,6.07
2023-06-10T03:40:36.145Z,4.35
2023-06-10T03:43:05.158Z,8.45
2023-06-10T03:45:34.469Z,4.72
2023-06-10T03:48:05.548Z,4.53
2023-06-10T03:50:43.208Z,6.72
2023-06-10T03:53:11.594Z,4.88
2023-06-10T03:55:42.704Z,4.38
2023-06-10T03:58:14.216Z,5.70
2023-06-10T04:00:43.348Z,4.90
2023-06-10T04:03:17.719Z,4.53
2023-06-10T04:05:50.311Z,4.50
2023-06-10T04:08:18.636Z,5.78
2023-06-10T04:10:46.990Z,4.78
2023-06-10T04:13:15.763Z,5.22
2023-06-10T04:15:51.945Z,5.38
2023-06-10T04:18:22.806Z,6.65
2023-06-10T04:20:55.121Z,4.18
2023-06-10T04:23:23.722Z,5.82
2023-06-10T04:25:55.938Z,5.22
2023-06-10T04:28:26.999Z,5.20
2023-06-10T04:30:55.798Z,5.97
2023-06-10T04:33:26.650Z,5.68
2023-06-10T04:35:55.068Z,4.97
2023-06-10T04:38:26.438Z,4.50
2023-06-10T04:40:54.993Z,6.00
2023-06-10T04:43:25.043Z,4.45
2023-06-10T04:45:54.556Z,5.32
2023-06-10T04:48:24.895Z,5.65
2023-06-10T04:50:55.659Z,5.20
2023-06-10T04:53:23.971Z,4.75
2023-06-10T04:55:52.284Z,4.45
2023-06-10T04:58:20.506Z,7.28
2023-06-10T05:00:48.762Z,6.13
2023-06-10T05:03:17.078Z,5.18
2023-06-10T05:05:45.464Z,5.15
2023-06-10T05:08:16.167Z,4.70
2023-06-10T05:10:45.417Z,4.78
2023-06-10T05:13:13.678Z,6.50
2023-06-10T05:15:45.508Z,5.22
2023-06-10T05:18:14.828Z,5.68
2023-06-10T05:20:46.510Z,5.85
2023-06-10T05:23:16.106Z,5.68
2023-06-10T05:25:44.734Z,6.05
2023-06-10T05:28:15.628Z,5.72
2023-06-10T05:30:44.306Z,7.15
2023-06-10T05:33:12.698Z,6.63
2023-06-10T05:35:42.542Z,8.52
2023-06-10T05:38:10.985Z,6.38
2023-06-10T05:40:41.118Z,7.13
2023-06-10T05:43:14.101Z,6.53
2023-06-10T05:45:42.431Z,6.13
2023-06-10T05:48:12.482Z,6.72
2023-06-10T05:50:43.596Z,6.70
2023-06-10T05:53:16.127Z,8.10
2023-06-10T05:55:47.382Z,6.82
2023-06-10T05:58:16.945Z,8.38
2023-06-10T06:00:46.262Z,5.78
2023-06-10T06:03:15.592Z,5.60
2023-06-10T06:05:47.274Z,6.45
2023-06-10T06:08:18.413Z,5.18
2023-06-10T06:10:50.863Z,9.07
2023-06-10T06:13:19.177Z,16.88
2023-06-10T06:15:56.121Z,12.75
2023-06-10T06:18:25.453Z,13.43
2023-06-10T06:20:53.678Z,12.40
2023-06-10T06:23:21.889Z,9.60
2023-06-10T06:25:53.110Z,6.75
2023-06-10T06:28:23.197Z,7.05
2023-06-10T06:30:51.494Z,7.72
2023-06-10T06:33:22.772Z,6.88
2023-06-10T06:35:55.808Z,5.72
2023-06-10T06:38:24.102Z,6.80
2023-06-10T06:40:54.263Z,5.35
2023-06-10T06:43:22.564Z,6.70
2023-06-10T06:46:32.604Z,6.43
2023-06-10T06:49:01.289Z,7.50
2023-06-10T06:51:30.045Z,6.30
2023-06-10T06:54:00.368Z,6.05
2023-06-10T06:56:30.672Z,5.10
2023-06-10T06:59:06.601Z,4.57
2023-06-10T07:01:36.081Z,5.38
2023-06-10T07:04:04.660Z,5.30
2023-06-10T07:06:36.236Z,5.57
2023-06-10T07:09:10.712Z,6.53
2023-06-10T07:11:40.350Z,7.65
2023-06-10T07:14:10.120Z,4.50
2023-06-10T07:16:38.453Z,5.32
2023-06-10T07:19:06.725Z,5.43
2023-06-10T07:21:36.001Z,6.68
2023-06-10T07:24:04.499Z,4.82
2023-06-10T07:26:33.902Z,5.57
2023-06-10T07:29:03.839Z,4.55
2023-06-10T07:31:33.173Z,4.55
2023-06-10T07:34:01.683Z,5.05
2023-06-10T07:36:30.771Z,4.72
2023-06-10T07:38:59.226Z,6.05
2023-06-10T07:41:27.872Z,5.47
2023-06-10T07:43:57.118Z,4.40
2023-06-10T07:46:28.298Z,4.35
2023-06-10T07:48:57.123Z,4.57
2023-06-10T07:51:25.436Z,4.32
2023-06-10T07:53:53.886Z,4.88
2023-06-10T07:56:23.024Z,4.78
2023-06-10T07:58:51.355Z,4.95
2023-06-10T08:01:19.630Z,5.20
2023-06-10T08:03:49.477Z,4.53
2023-06-10T08:06:18.821Z,4.50
2023-06-10T08:08:47.116Z,4.70
2023-06-10T08:11:16.578Z,4.10
2023-06-10T08:13:45.090Z,4.00
2023-06-10T08:16:13.547Z,4.60
2023-06-10T08:18:42.316Z,6.82
2023-06-10T08:21:11.944Z,8.15
2023-06-10T08:23:41.554Z,7.15
2023-06-10T08:26:09.941Z,7.00
2023-06-10T08:28:38.384Z,5.90
2023-06-10T08:31:06.695Z,5.18
2023-06-10T08:33:34.970Z,5.07
2023-06-10T08:36:03.280Z,5.03
2023-06-10T08:38:34.909Z,4.85
2023-06-10T08:41:08.100Z,5.03
2023-06-10T08:43:41.513Z,5.72
2023-06-10T08:46:11.726Z,4.68
2023-06-10T08:48:45.574Z,5.50
2023-06-10T08:51:14.320Z,4.95
2023-06-10T08:53:51.826Z,4.82
2023-06-10T08:56:20.548Z,5.95
2023-06-10T08:58:50.208Z,4.78
2023-06-10T09:01:19.718Z,4.60
2023-06-10T09:03:48.320Z,4.65
2023-06-10T09:06:16.790Z,5.05
2023-06-10T09:08:46.531Z,4.78
2023-06-10T09:11:14.875Z,5.93
2023-06-10T09:13:43.200Z,4.82
2023-06-10T09:16:12.861Z,4.63
2023-06-10T09:18:41.237Z,4.40
2023-06-10T09:21:09.549Z,4.35
2023-06-10T09:23:39.522Z,4.47
2023-06-10T09:26:12.395Z,4.70
2023-06-10T09:28:41.387Z,4.65
2023-06-10T09:31:10.391Z,4.35
2023-06-10T09:33:40.588Z,5.13
2023-06-10T09:36:09.359Z,4.10
2023-06-10T09:38:38.910Z,4.05
2023-06-10T09:41:07.235Z,5.38
2023-06-10T09:43:44.935Z,3.60
2023-06-10T09:46:20.343Z,4.20
2023-06-10T09:48:49.894Z,3.90
2023-06-10T09:51:18.980Z,3.83
2023-06-10T09:53:51.288Z,3.70
2023-06-10T09:56:19.591Z,3.97
2023-06-10T09:58:49.356Z,3.75
2023-06-10T10:01:17.838Z,3.90
2023-06-10T10:03:51.264Z,3.67
2023-06-10T10:06:21.275Z,3.30
2023-06-10T10:08:51.495Z,3.28
2023-06-10T10:11:20.912Z,3.45
2023-06-10T10:13:52.105Z,3.20
2023-06-10T10:16:22.878Z,3.45
2023-06-10T10:18:56.161Z,3.50
2023-06-10T10:21:28.616Z,2.95
2023-06-10T10:24:05.316Z,3.33
2023-06-10T10:26:34.837Z,3.00
2023-06-10T10:29:12.689Z,3.20
2023-06-10T10:31:45.197Z,2.97
2023-06-10T10:34:17.992Z,3.08
2023-06-10T10:36:48.972Z,3.28
2023-06-10T10:39:18.342Z,3.03
2023-06-10T10:41:47.553Z,3.33
2023-06-10T10:44:18.564Z,3.17
2023-06-10T10:46:51.067Z,3.20
2023-06-10T10:49:20.516Z,2.95
2023-06-10T10:51:59.072Z,3.05
2023-06-10T10:54:32.857Z,3.60
2023-06-10T10:57:19.038Z,3.22
2023-06-10T10:59:57.940Z,3.40
2023-06-10T11:02:45.386Z,4.00
2023-06-10T11:05:16.635Z,5.53
2023-06-10T11:07:56.827Z,3.72
2023-06-10T11:10:32.380Z,3.40
2023-06-10T11:13:01.303Z,3.22
2023-06-10T11:15:31.901Z,3.67
2023-06-10T11:18:17.356Z,3.30
2023-06-10T11:20:55.892Z,3.33
2023-06-10T11:23:43.573Z,3.22
2023-06-10T11:26:28.000Z,3.33
2023-06-10T11:29:21.683Z,3.80
2023-06-10T11:31:56.296Z,3.25
2023-06-10T11:34:28.130Z,3.17
2023-06-10T11:36:56.538Z,3.38
2023-06-10T11:39:27.541Z,3.13
2023-06-10T11:41:57.040Z,3.30
2023-06-10T11:44:31.083Z,3.65
2023-06-10T11:47:00.747Z,3.83
2023-06-10T11:49:29.123Z,3.10
2023-06-10T11:51:57.575Z,3.05
2023-06-10T11:54:26.023Z,3.67
2023-06-10T11:57:00.322Z,2.85
2023-06-10T11:59:29.789Z,4.13
2023-06-10T12:01:58.749Z,3.00
2023-06-10T12:04:28.454Z,4.38
2023-06-10T12:06:57.678Z,3.72
2023-06-10T12:09:28.276Z,3.42
2023-06-10T12:12:01.519Z,3.05
2023-06-10T12:14:56.229Z,3.17
2023-06-10T12:17:26.231Z,3.08
2023-06-10T12:19:55.962Z,3.05
2023-06-10T12:22:24.675Z,3.00
2023-06-10T12:25:04.601Z,2.60
2023-06-10T12:27:34.874Z,3.10
2023-06-10T12:30:06.916Z,2.90
2023-06-10T12:32:43.310Z,3.40
2023-06-10T12:35:14.916Z,3.63
2023-06-10T12:37:56.620Z,4.03
2023-06-10T12:40:28.481Z,3.08
2023-06-10T12:42:57.274Z,2.90
2023-06-10T12:45:30.684Z,3.08
2023-06-10T12:48:10.415Z,2.78
2023-06-10T12:50:42.269Z,3.10
2023-06-10T12:53:12.440Z,2.88
2023-06-10T12:55:41.007Z,2.60
2023-06-10T12:58:09.490Z,2.97
2023-06-10T13:00:37.855Z,2.72
2023-06-10T13:03:08.117Z,2.90
2023-06-10T13:05:38.525Z,3.00
2023-06-10T13:08:08.677Z,2.92
2023-06-10T13:10:37.023Z,3.20
2023-06-10T13:13:06.907Z,3.42
2023-06-10T13:15:40.296Z,2.75
2023-06-10T13:18:11.388Z,2.63
2023-06-10T13:20:39.969Z,2.80
2023-06-10T13:23:09.684Z,3.35
2023-06-10T13:25:37.925Z,2.83
2023-06-10T13:28:06.380Z,2.58
2023-06-10T13:30:34.716Z,2.60
2023-06-10T13:33:03.490Z,2.85
2023-06-10T13:35:32.052Z,3.00
2023-06-10T13:38:00.493Z,2.78
2023-06-10T13:40:30.143Z,2.85
2023-06-10T13:42:58.534Z,2.97
2023-06-10T13:45:27.286Z,2.80
2023-06-10T13:47:55.625Z,2.72
2023-06-10T13:50:23.914Z,4.32
2023-06-10T13:52:52.207Z,2.92
2023-06-10T13:55:21.396Z,2.53
2023-06-10T13:57:51.037Z,2.78
2023-06-10T14:00:20.206Z,2.47
2023-06-10T14:02:48.753Z,3.00
2023-06-10T14:05:17.545Z,3.00
2023-06-10T14:07:45.873Z,2.75
2023-06-10T14:10:14.210Z,2.83
2023-06-10T14:12:43.103Z,2.85
2023-06-10T14:15:13.438Z,2.63
2023-06-10T14:17:42.102Z,3.05
2023-06-10T14:20:11.229Z,2.90
2023-06-10T14:22:39.495Z,4.15
2023-06-10T14:25:09.157Z,2.85
2023-06-10T14:27:37.796Z,2.83
2023-06-10T14:30:07.154Z,2.78
2023-06-10T14:32:36.946Z,2.60
2023-06-10T14:35:06.270Z,2.72
2023-06-10T14:37:34.664Z,2.53
2023-06-10T14:40:03.294Z,2.83
2023-06-10T14:42:33.071Z,2.90
2023-06-10T14:45:01.529Z,3.08
2023-06-10T14:47:30.321Z,4.72
2023-06-10T14:50:00.068Z,2.55
2023-06-10T14:52:28.386Z,2.50
2023-06-10T14:54:56.676Z,2.80
2023-06-10T14:57:25.009Z,2.72
2023-06-10T14:59:53.313Z,2.88
2023-06-10T15:02:21.619Z,2.78
2023-06-10T15:04:49.913Z,2.78
2023-06-10T15:07:19.580Z,4.13
2023-06-10T15:09:47.834Z,3.05
2023-06-10T15:12:16.108Z,3.10
2023-06-10T15:14:44.401Z,2.53
2023-06-10T15:20:17.077Z,2.67
2023-06-10T15:22:46.712Z,3.25
2023-06-10T15:27:46.293Z,2.63
2023-06-10T15:30:14.797Z,3.00
2023-06-10T15:32:43.101Z,2.80
2023-06-10T15:35:11.936Z,3.15
2023-06-10T15:37:40.456Z,3.63
2023-06-10T15:40:11.243Z,3.00
2023-06-10T15:42:39.715Z,2.80
2023-06-10T15:45:09.321Z,3.10
2023-06-10T15:47:37.994Z,2.97
2023-06-10T15:50:07.330Z,3.65
2023-06-10T15:52:35.595Z,3.72
2023-06-10T15:55:03.942Z,3.40
2023-06-10T15:57:33.804Z,2.90
2023-06-10T16:00:02.107Z,3.58
2023-06-10T16:02:35.778Z,3.53
2023-06-10T16:05:05.911Z,3.05
2023-06-10T16:07:34.151Z,3.25
2023-06-10T16:10:02.568Z,3.03
2023-06-10T16:12:31.471Z,3.08
2023-06-10T16:15:01.150Z,3.10
2023-06-10T16:17:29.471Z,3.53
2023-06-10T16:19:57.775Z,3.00
2023-06-10T16:22:26.091Z,3.88
2023-06-10T16:24:54.331Z,3.90
2023-06-10T16:27:22.830Z,4.07
2023-06-10T16:29:51.092Z,4.65
2023-06-10T16:32:20.860Z,3.50
2023-06-10T16:34:49.215Z,3.65
2023-06-10T16:37:17.519Z,3.03
2023-06-10T16:39:45.775Z,3.33
2023-06-10T16:42:14.106Z,3.20
2023-06-10T16:44:42.357Z,3.42
2023-06-10T16:47:10.756Z,3.50
2023-06-10T16:49:40.434Z,3.08
2023-06-10T16:52:09.241Z,3.50
2023-06-10T16:54:37.511Z,3.58
2023-06-10T16:57:06.558Z,3.28
2023-06-10T16:59:34.954Z,3.55
2023-06-10T17:02:04.113Z,3.30
2023-06-10T17:04:32.429Z,3.15
2023-06-10T17:07:02.197Z,3.45
2023-06-10T17:09:30.470Z,3.13
2023-06-10T17:11:58.874Z,3.47
2023-06-10T17:14:27.440Z,3.30
2023-06-10T17:16:55.871Z,3.30
2023-06-10T17:19:24.242Z,2.97
2023-06-10T17:21:52.511Z,2.95
2023-06-10T17:24:22.342Z,2.83
2023-06-10T17:26:50.764Z,3.58
2023-06-10T17:29:19.106Z,3.08
2023-06-10T17:31:47.340Z,3.15
2023-06-10T17:34:15.614Z,3.50
2023-06-10T17:36:43.874Z,3.30
2023-06-10T17:39:13.810Z,3.28
2023-06-10T17:41:49.806Z,3.13
2023-06-10T17:44:22.405Z,3.05
2023-06-10T17:46:50.744Z,3.67
2023-06-10T17:49:19.079Z,4.32
2023-06-10T17:51:47.333Z,3.63
2023-06-10T17:54:15.749Z,3.00
2023-06-10T17:56:43.980Z,3.42
2023-06-10T17:59:13.554Z,3.63
2023-06-10T18:01:45.082Z,3.30
2023-06-10T18:04:13.538Z,3.72
2023-06-10T18:06:41.799Z,3.80
2023-06-10T18:09:12.672Z,3.70
2023-06-10T18:11:41.370Z,4.22
2023-06-10T18:14:11.478Z,4.38
2023-06-10T18:16:41.833Z,3.95
2023-06-10T18:19:10.342Z,3.95
2023-06-10T18:21:40.447Z,4.07
2023-06-10T18:24:09.751Z,3.95
2023-06-10T18:26:38.069Z,3.90
2023-06-10T18:29:06.352Z,4.38
2023-06-10T18:31:34.728Z,3.47
2023-06-10T18:34:04.812Z,3.97
2023-06-10T18:36:33.159Z,3.50
2023-06-10T18:39:03.436Z,3.65
2023-06-10T18:41:31.934Z,3.58
2023-06-10T18:44:00.903Z,3.65
2023-06-10T18:46:29.669Z,4.03
2023-06-10T18:48:58.214Z,3.42
2023-06-10T18:51:28.235Z,4.03
2023-06-10T18:53:56.573Z,3.70
2023-06-10T18:56:24.861Z,3.58
2023-06-10T18:58:54.973Z,3.55
2023-06-10T19:01:23.522Z,3.63
2023-06-10T19:03:51.954Z,3.22
2023-06-10T19:06:20.370Z,3.47
2023-06-10T19:08:50.158Z,3.40
2023-06-10T19:11:18.702Z,3.50
2023-06-10T19:13:46.943Z,3.53
2023-06-10T19:16:15.314Z,3.22
2023-06-10T19:18:43.659Z,3.35
2023-06-10T19:21:12.146Z,3.53
2023-06-10T19:23:40.578Z,4.00
2023-06-10T19:26:10.364Z,3.50
2023-06-10T19:28:38.754Z,3.17
2023-06-10T19:31:07.265Z,3.30
2023-06-10T19:33:35.846Z,3.60
2023-06-10T19:36:04.483Z,3.70
2023-06-10T19:38:32.780Z,3.35
2023-06-10T19:41:02.191Z,3.10
2023-06-10T19:43:31.855Z,3.30
2023-06-10T19:46:00.106Z,3.72
2023-06-10T19:48:29.780Z,3.63
2023-06-10T19:50:58.279Z,3.53
2023-06-10T19:53:26.589Z,3.20
2023-06-10T19:55:54.898Z,3.40
2023-06-10T19:58:23.162Z,3.40
2023-06-10T20:00:52.894Z,3.50
2023-06-10T20:03:21.238Z,4.53
2023-06-10T20:05:49.748Z,3.53
2023-06-10T20:08:18.546Z,3.88
2023-06-10T20:10:46.829Z,4.07
2023-06-10T20:13:16.598Z,3.83
2023-06-10T20:15:44.819Z,4.07
2023-06-10T20:18:14.426Z,3.70
2023-06-10T20:20:42.765Z,4.22
2023-06-10T20:23:11.144Z,3.55
2023-06-10T20:25:39.780Z,3.60
2023-06-10T20:28:08.225Z,6.70
2023-06-10T20:30:38.753Z,3.67
2023-06-10T20:33:08.771Z,3.75
2023-06-10T20:35:38.538Z,3.70
2023-06-10T20:38:06.812Z,3.58
2023-06-10T20:40:35.218Z,3.40
2023-06-10T20:43:03.581Z,3.25
2023-06-10T20:45:31.837Z,3.13
2023-06-10T20:48:00.441Z,3.85
2023-06-10T20:50:28.828Z,3.63
2023-06-10T20:52:58.517Z,3.15
2023-06-10T20:55:27.220Z,3.15
2023-06-10T20:57:59.373Z,3.50
2023-06-10T21:00:28.045Z,3.45
2023-06-10T21:02:56.420Z,3.72
2023-06-10T21:05:24.888Z,3.30
2023-06-10T21:07:53.395Z,3.40
2023-06-10T21:10:23.162Z,3.00
2023-06-10T21:12:51.454Z,3.20
2023-06-10T21:15:20.171Z,3.50
2023-06-10T21:17:48.538Z,3.60
2023-06-10T21:20:17.182Z,3.17
2023-06-10T21:22:48.301Z,3.45
2023-06-10T21:25:16.687Z,3.00
2023-06-10T21:27:46.538Z,3.20
2023-06-10T21:30:15.088Z,3.22
2023-06-10T21:32:44.303Z,3.30
2023-06-10T21:35:14.007Z,3.20
2023-06-10T21:37:42.369Z,3.45
2023-06-10T21:40:11.461Z,3.10
2023-06-10T21:42:39.704Z,3.15
2023-06-10T21:45:10.775Z,3.05
2023-06-10T21:47:39.722Z,3.67
2023-06-10T21:50:08.938Z,3.40
2023-06-10T21:52:37.199Z,3.55
2023-06-10T21:55:06.388Z,3.28
2023-06-10T21:57:34.717Z,3.60
2023-06-10T22:00:03.051Z,3.00
2023-06-10T22:02:34.602Z,3.33
2023-06-10T22:05:03.035Z,3.22
2023-06-10T22:07:31.355Z,3.50
2023-06-10T22:10:03.364Z,3.40
2023-06-10T22:12:32.311Z,4.22
2023-06-10T22:15:00.657Z,3.40
2023-06-10T22:17:28.931Z,3.75
2023-06-10T22:19:58.556Z,3.38
2023-06-10T22:22:27.234Z,3.60
2023-06-10T22:24:56.826Z,3.13
2023-06-10T22:27:30.031Z,4.50
2023-06-10T22:29:58.263Z,4.78
2023-06-10T22:32:26.558Z,4.95
2023-06-10T22:34:54.824Z,5.45
2023-06-10T22:37:24.698Z,5.35
2023-06-10T22:39:53.260Z,5.65
2023-06-10T22:42:21.952Z,5.32
2023-06-10T22:44:50.563Z,4.78
2023-06-10T22:47:19.578Z,5.10
2023-06-10T22:49:47.894Z,5.20
2023-06-10T22:52:16.158Z,4.30
2023-06-10T22:54:45.875Z,4.32
2023-06-10T22:57:14.073Z,4.43
2023-06-10T22:59:42.424Z,3.80
2023-06-10T23:02:10.780Z,4.45
2023-06-10T23:04:39.149Z,3.95
2023-06-10T23:07:07.378Z,4.10
2023-06-10T23:09:35.685Z,3.70
2023-06-10T23:12:06.633Z,3.60
2023-06-10T23:14:34.884Z,3.65
2023-06-10T23:17:03.162Z,3.65
2023-06-10T23:19:31.391Z,4.18
2023-06-10T23:21:59.729Z,3.97
2023-06-10T23:24:31.223Z,3.65
2023-06-10T23:27:01.546Z,3.75
2023-06-10T23:29:31.315Z,3.55
2023-06-10T23:31:59.954Z,3.38
2023-06-10T23:34:31.247Z,3.60
2023-06-10T23:36:59.520Z,3.70
2023-06-10T23:39:27.817Z,3.05
2023-06-10T23:41:56.195Z,3.60
2023-06-10T23:44:24.447Z,3.20
2023-06-10T23:46:54.144Z,3.40
2023-06-10T23:49:22.448Z,4.05
2023-06-10T23:51:50.915Z,3.78
2023-06-10T23:54:19.203Z,3.55
2023-06-10T23:56:47.590Z,3.65
2023-06-10T23:59:15.911Z,3.40
